createdAt,value
2023-03-03T00:03:16.042Z,19.87
2023-03-03T00:07:23.174Z,21.80
2023-03-03T00:11:25.224Z,22.67
2023-03-03T00:15:27.521Z,21.27
2023-03-03T00:19:30.330Z,22.63
2023-03-03T00:23:36.372Z,21.50
2023-03-03T00:27:38.136Z,22.30
2023-03-03T00:31:39.993Z,22.60
2023-03-03T00:35:42.015Z,21.90
2023-03-03T00:39:43.898Z,22.57
2023-03-03T00:43:45.758Z,22.83
2023-03-03T00:47:47.949Z,21.57
2023-03-03T00:51:49.879Z,20.10
2023-03-03T00:55:52.382Z,22.20
2023-03-03T00:59:54.182Z,22.43
2023-03-03T01:03:56.226Z,22.13
2023-03-03T01:07:58.106Z,23.57
2023-03-03T01:12:00.080Z,21.40
2023-03-03T01:16:02.242Z,21.87
2023-03-03T01:20:04.505Z,21.83
2023-03-03T01:24:07.424Z,22.37
2023-03-03T01:28:09.365Z,19.97
2023-03-03T01:32:11.230Z,22.47
2023-03-03T01:36:13.024Z,21.47
2023-03-03T01:40:34.071Z,20.97
2023-03-03T01:44:35.915Z,19.73
2023-03-03T01:48:42.990Z,20.43
2023-03-03T01:52:45.370Z,19.60
2023-03-03T01:56:47.647Z,19.13
2023-03-03T02:00:57.404Z,19.50
2023-03-03T02:04:59.287Z,17.73
2023-03-03T02:09:09.936Z,18.57
2023-03-03T02:13:12.026Z,17.60
2023-03-03T02:17:15.107Z,18.00
2023-03-03T02:21:21.559Z,18.03
2023-03-03T02:25:34.568Z,17.37
2023-03-03T02:29:38.805Z,17.83
2023-03-03T02:33:42.297Z,16.80
2023-03-03T02:37:44.056Z,17.40
2023-03-03T02:42:21.352Z,18.13
2023-03-03T02:46:23.296Z,17.90
2023-03-03T02:50:25.090Z,18.13
2023-03-03T02:54:28.338Z,18.07
2023-03-03T02:58:31.023Z,17.03
2023-03-03T03:02:32.978Z,18.30
2023-03-03T03:06:41.309Z,18.07
2023-03-03T03:10:56.277Z,18.00
2023-03-03T03:15:04.325Z,17.67
2023-03-03T03:19:13.301Z,17.57
2023-03-03T03:23:22.247Z,15.77
2023-03-03T03:27:24.100Z,15.33
2023-03-03T03:31:25.902Z,15.23
2023-03-03T03:35:28.523Z,15.60
2023-03-03T03:39:30.431Z,14.77
2023-03-03T03:43:32.374Z,15.47
2023-03-03T03:47:34.211Z,16.70
2023-03-03T03:51:38.251Z,15.83
2023-03-03T03:55:40.037Z,15.77
2023-03-03T03:59:41.879Z,15.87
2023-03-03T04:03:43.719Z,15.43
2023-03-03T04:07:45.840Z,16.43
2023-03-03T04:11:47.715Z,16.63
2023-03-03T04:15:49.545Z,16.60
2023-03-03T04:19:53.589Z,16.00
2023-03-03T04:23:55.496Z,16.17
2023-03-03T04:27:57.358Z,17.30
2023-03-03T04:31:59.265Z,16.13
2023-03-03T04:36:01.170Z,15.53
2023-03-03T04:40:06.736Z,15.17
2023-03-03T04:44:08.493Z,15.90
2023-03-03T04:48:10.286Z,16.23
2023-03-03T04:52:12.178Z,14.40
2023-03-03T04:56:14.114Z,14.00
2023-03-03T05:00:16.629Z,15.57
2023-03-03T05:04:18.440Z,15.67
2023-03-03T05:08:20.448Z,14.37
2023-03-03T05:12:22.372Z,14.70
2023-03-03T05:16:26.652Z,15.60
2023-03-03T05:20:28.672Z,15.20
2023-03-03T05:24:30.475Z,15.23
2023-03-03T05:28:33.239Z,14.33
2023-03-03T05:32:36.687Z,14.87
2023-03-03T05:36:38.611Z,15.17
2023-03-03T05:40:40.901Z,15.67
2023-03-03T05:44:43.710Z,14.87
2023-03-03T05:48:47.878Z,15.63
2023-03-03T05:52:52.611Z,15.23
2023-03-03T05:57:07.031Z,16.30
2023-03-03T06:01:08.916Z,15.20
2023-03-03T06:05:12.078Z,15.97
2023-03-03T06:09:14.175Z,14.93
2023-03-03T06:13:16.114Z,13.50
2023-03-03T06:17:18.137Z,15.40
2023-03-03T06:21:20.399Z,14.50
2023-03-03T06:25:24.819Z,14.70
2023-03-03T06:29:27.539Z,15.30
2023-03-03T06:33:37.486Z,13.07
2023-03-03T06:37:39.521Z,13.50
2023-03-03T06:41:41.373Z,13.30
2023-03-03T06:45:46.520Z,14.43
2023-03-03T06:49:51.269Z,13.37
2023-03-03T06:53:55.302Z,14.10
2023-03-03T06:57:57.254Z,13.37
2023-03-03T07:02:01.851Z,14.37
2023-03-03T07:06:15.050Z,12.23
2023-03-03T07:10:29.443Z,13.23
2023-03-03T07:14:31.822Z,12.20
2023-03-03T07:18:55.735Z,13.73
2023-03-03T07:22:57.785Z,14.10
2023-03-03T07:27:05.902Z,13.53
2023-03-03T07:31:29.648Z,14.07
2023-03-03T07:35:44.521Z,13.77
2023-03-03T07:39:46.620Z,11.77
2023-03-03T07:44:37.489Z,11.97
2023-03-03T07:48:41.896Z,12.23
2023-03-03T07:52:51.696Z,10.93
2023-03-03T07:56:53.551Z,11.83
2023-03-03T08:01:32.273Z,11.30
2023-03-03T08:05:41.833Z,10.47
2023-03-03T08:10:00.041Z,10.70
2023-03-03T08:14:02.019Z,10.70
2023-03-03T08:18:22.465Z,10.13
2023-03-03T08:22:50.442Z,10.90
2023-03-03T08:26:52.211Z,10.63
2023-03-03T08:31:05.784Z,10.37
2023-03-03T08:35:17.732Z,9.53
2023-03-03T08:39:19.775Z,9.63
2023-03-03T08:43:22.866Z,8.87
2023-03-03T08:47:24.853Z,10.10
2023-03-03T08:51:26.798Z,10.00
2023-03-03T08:55:28.654Z,10.20
2023-03-03T08:59:30.422Z,9.00
2023-03-03T09:03:32.251Z,10.13
2023-03-03T09:07:34.072Z,10.93
2023-03-03T09:11:35.950Z,10.00
2023-03-03T09:15:38.336Z,10.77
2023-03-03T09:19:40.234Z,12.17
2023-03-03T09:23:42.576Z,9.37
2023-03-03T09:27:44.330Z,8.10
2023-03-03T09:31:52.014Z,7.53
2023-03-03T09:36:25.808Z,7.47
2023-03-03T09:40:54.114Z,7.93
2023-03-03T09:45:02.371Z,7.83
2023-03-03T09:49:26.274Z,7.93
2023-03-03T09:53:33.935Z,5.73
2023-03-03T09:58:10.135Z,5.40
2023-03-03T10:02:35.922Z,5.27
2023-03-03T10:07:18.546Z,5.90
2023-03-03T10:11:29.307Z,5.37
2023-03-03T10:16:00.686Z,5.20
2023-03-03T10:20:23.852Z,5.07
2023-03-03T10:24:58.482Z,5.80
2023-03-03T10:29:24.221Z,4.20
2023-03-03T10:33:44.520Z,4.30
2023-03-03T10:38:10.781Z,4.00
2023-03-03T10:42:37.281Z,3.87
2023-03-03T10:47:02.557Z,3.50
2023-03-03T10:51:20.127Z,3.47
2023-03-03T10:55:28.051Z,2.97
2023-03-03T11:00:08.284Z,3.33
2023-03-03T11:05:10.020Z,3.60
2023-03-03T11:09:37.907Z,3.40
2023-03-03T11:13:51.103Z,3.47
2023-03-03T11:18:03.994Z,3.13
2023-03-03T11:22:33.752Z,4.47
2023-03-03T11:27:14.309Z,4.10
2023-03-03T11:31:45.763Z,4.27
2023-03-03T11:36:19.930Z,4.50
2023-03-03T11:40:26.017Z,4.10
2023-03-03T11:44:37.098Z,4.37
2023-03-03T11:49:06.112Z,4.50
2023-03-03T11:53:24.463Z,4.10
2023-03-03T11:57:37.023Z,4.30
2023-03-03T12:01:58.618Z,3.73
2023-03-03T12:06:38.647Z,3.47
2023-03-03T12:11:23.135Z,3.60
2023-03-03T12:15:47.068Z,3.47
2023-03-03T12:20:37.421Z,3.63
2023-03-03T12:25:25.919Z,3.57
2023-03-03T12:29:31.236Z,3.17
2023-03-03T12:33:58.127Z,2.70
2023-03-03T12:38:43.982Z,3.03
2023-03-03T12:43:24.408Z,2.90
2023-03-03T12:47:50.378Z,3.03
2023-03-03T12:52:27.969Z,2.83
2023-03-03T12:57:01.054Z,3.63
2023-03-03T13:01:08.458Z,3.50
2023-03-03T13:05:20.716Z,3.87
2023-03-03T13:09:44.168Z,3.60
2023-03-03T13:13:52.888Z,3.60
2023-03-03T13:18:25.305Z,4.27
2023-03-03T13:22:49.248Z,4.20
2023-03-03T13:26:57.149Z,3.63
2023-03-03T13:31:20.899Z,4.37
2023-03-03T13:35:46.405Z,3.77
2023-03-03T13:40:48.020Z,4.13
2023-03-03T13:44:50.228Z,4.70
2023-03-03T13:49:06.086Z,4.53
2023-03-03T13:53:38.158Z,4.20
2023-03-03T13:58:19.877Z,4.33
2023-03-03T14:03:26.625Z,4.80
2023-03-03T14:07:47.204Z,4.77
2023-03-03T14:12:53.098Z,5.20
2023-03-03T14:17:23.960Z,5.73
2023-03-03T14:21:38.071Z,5.30
2023-03-03T14:26:04.644Z,4.90
2023-03-03T14:30:30.959Z,4.80
2023-03-03T14:34:41.130Z,5.53
2023-03-03T14:38:49.025Z,4.90
2023-03-03T14:42:56.736Z,5.43
2023-03-03T14:47:29.258Z,4.77
2023-03-03T14:51:41.660Z,4.83
2023-03-03T14:55:45.559Z,5.07
2023-03-03T15:00:08.003Z,3.93
2023-03-03T15:04:15.966Z,5.50
2023-03-03T15:08:25.245Z,5.23
2023-03-03T15:12:35.128Z,5.60
2023-03-03T15:16:36.970Z,6.03
2023-03-03T15:20:56.185Z,5.87
2023-03-03T15:25:09.470Z,6.03
2023-03-03T15:29:34.051Z,5.50
2023-03-03T15:34:04.632Z,5.67
2023-03-03T15:38:57.947Z,5.80
2023-03-03T15:43:27.512Z,6.13
2023-03-03T15:47:58.171Z,6.23
2023-03-03T15:52:29.976Z,7.30
2023-03-03T15:56:49.598Z,7.70
2023-03-03T16:01:33.066Z,6.57
2023-03-03T16:06:21.261Z,7.13
2023-03-03T16:10:46.991Z,7.50
2023-03-03T16:15:35.477Z,7.63
2023-03-03T16:20:04.383Z,8.13
2023-03-03T16:24:51.686Z,8.10
2023-03-03T16:29:01.673Z,9.80
2023-03-03T16:33:44.013Z,11.27
2023-03-03T16:38:16.368Z,12.10
2023-03-03T16:42:32.555Z,10.57
2023-03-03T16:46:50.686Z,10.53
2023-03-03T16:51:12.343Z,8.47
2023-03-03T16:55:48.944Z,10.97
2023-03-03T17:00:10.880Z,11.17
2023-03-03T17:04:38.268Z,11.63
2023-03-03T17:09:26.690Z,12.13
2023-03-03T17:14:13.931Z,11.53
2023-03-03T17:18:38.702Z,9.87
2023-03-03T17:23:20.462Z,11.40
2023-03-03T17:27:39.835Z,10.57
2023-03-03T17:31:54.532Z,10.80
2023-03-03T17:36:25.882Z,11.40
2023-03-03T17:40:56.504Z,13.13
2023-03-03T17:45:17.329Z,12.97
2023-03-03T17:49:56.586Z,13.30
2023-03-03T17:54:11.403Z,13.63
2023-03-03T17:58:35.679Z,14.17
2023-03-03T18:02:59.871Z,12.33
2023-03-03T18:07:26.773Z,13.63
2023-03-03T18:11:45.536Z,14.03
2023-03-03T18:16:39.758Z,13.27
2023-03-03T18:20:58.824Z,15.20
2023-03-03T18:25:55.158Z,15.10
2023-03-03T18:30:24.583Z,15.23
2023-03-03T18:34:44.289Z,13.47
2023-03-03T18:38:53.680Z,14.70
2023-03-03T18:42:55.574Z,13.90
2023-03-03T18:46:59.871Z,14.63
2023-03-03T18:51:02.945Z,13.70
2023-03-03T18:55:13.792Z,14.40
2023-03-03T18:59:37.779Z,13.63
2023-03-03T19:03:48.444Z,14.83
2023-03-03T19:07:59.684Z,13.30
2023-03-03T19:12:01.938Z,12.93
2023-03-03T19:16:23.202Z,11.80
2023-03-03T19:20:25.234Z,12.70
2023-03-03T19:24:34.677Z,12.70
2023-03-03T19:28:41.873Z,12.07
2023-03-03T19:33:14.304Z,13.33
2023-03-03T19:37:51.069Z,12.10
2023-03-03T19:42:19.794Z,11.27
2023-03-03T19:47:00.681Z,12.20
2023-03-03T19:51:26.810Z,12.53
2023-03-03T19:56:37.408Z,11.67
2023-03-03T20:01:57.941Z,12.23
2023-03-03T20:06:32.925Z,13.67
2023-03-03T20:10:57.458Z,11.57
2023-03-03T20:15:25.410Z,12.27
2023-03-03T20:20:07.621Z,11.60
2023-03-03T20:24:28.406Z,12.93
2023-03-03T20:28:38.092Z,12.10
2023-03-03T20:33:51.649Z,10.27
2023-03-03T20:38:32.985Z,12.50
2023-03-03T20:43:08.241Z,12.23
2023-03-03T20:47:57.541Z,13.50
2023-03-03T20:52:49.468Z,13.47
2023-03-03T20:57:13.640Z,12.97
2023-03-03T21:01:35.126Z,12.30
2023-03-03T21:05:53.820Z,13.30
2023-03-03T21:10:24.073Z,13.07
2023-03-03T21:14:37.717Z,14.17
2023-03-03T21:18:47.395Z,15.20
2023-03-03T21:22:53.411Z,14.23
2023-03-03T21:27:01.985Z,15.13
2023-03-03T21:31:17.149Z,14.97
2023-03-03T21:35:23.971Z,14.97
2023-03-03T21:39:30.767Z,14.20
2023-03-03T21:43:40.281Z,15.23
2023-03-03T21:48:02.669Z,15.43
2023-03-03T21:52:12.895Z,15.97
2023-03-03T21:56:20.069Z,17.77
2023-03-03T22:00:24.433Z,18.00
2023-03-03T22:04:29.322Z,18.27
2023-03-03T22:08:31.195Z,18.07
2023-03-03T22:12:37.555Z,20.07
2023-03-03T22:16:39.559Z,16.37
2023-03-03T22:20:43.930Z,15.73
2023-03-03T22:24:45.967Z,17.93
2023-03-03T22:28:49.258Z,16.87
2023-03-03T22:32:54.714Z,17.77
2023-03-03T22:36:56.529Z,16.00
2023-03-03T22:40:58.408Z,16.77
2023-03-03T22:45:01.493Z,16.63
2023-03-03T22:49:03.318Z,14.97
2023-03-03T22:53:08.401Z,14.87
2023-03-03T22:57:10.227Z,15.93
2023-03-03T23:01:17.715Z,12.73
2023-03-03T23:05:19.619Z,14.27
2023-03-03T23:09:21.437Z,14.63
2023-03-03T23:13:25.187Z,14.17
2023-03-03T23:17:27.471Z,13.90
2023-03-03T23:21:29.280Z,13.43
2023-03-03T23:25:31.233Z,12.47
2023-03-03T23:29:33.214Z,12.87
2023-03-03T23:33:35.460Z,13.17
2023-03-03T23:37:37.361Z,12.90
2023-03-03T23:41:39.209Z,13.20
2023-03-03T23:45:41.010Z,13.07
2023-03-03T23:49:42.827Z,12.53
2023-03-03T23:53:44.700Z,13.27
2023-03-03T23:57:49.694Z,11.20
